Howells, New York
Current Conditions -  °F | °C
As of 4:54 AM on Friday 24 Oct 2014 (Local Time) from KMGJ Reporting Station
Light Rain Light Rain  
Wind Chill: 47°   Ceiling: 9000
Heat Index: 49°   Visibility: 10mi
Dew Point: 42°   Wind: 5mph
Humidity: 77%   Direction: NA
Pressure: 29.78"   Gusts: NA
Location:  41.48°N, 74.47°W
Report Text: KMGJ 240854Z AUTO VRB04KT 10SM -RA BKN090 OVC110 09/06 A2978 RMK AO2 RAE0756B48 SLP085 P0000 60000 T00940056 56003 TSNO
Loading
Personal Weather Stations






























Interactive Weather Map
Tropical Storm Tracking
New forecast layout! Learn more

10-Day Weather Forecast

Advertisements
Track Severe Weather on mobile